sensor_id;sensor_type;location;lat;lon;timestamp;P1;durP1;ratioP1;P2;durP2;ratioP2
22652;SDS011;11493;43.344;26.226;2022-07-12T00:00:42;1.27;;;1.10;;
22652;SDS011;11493;43.344;26.226;2022-07-12T00:03:14;2.72;;;0.98;;
22652;SDS011;11493;43.344;26.226;2022-07-12T00:08:08;2.78;;;1.17;;
22652;SDS011;11493;43.344;26.226;2022-07-12T00:10:39;2.35;;;1.15;;
22652;SDS011;11493;43.344;26.226;2022-07-12T00:15:37;2.63;;;1.10;;
22652;SDS011;11493;43.344;26.226;2022-07-12T00:18:04;2.13;;;1.15;;
22652;SDS011;11493;43.344;26.226;2022-07-12T00:20:31;1.67;;;1.20;;
22652;SDS011;11493;43.344;26.226;2022-07-12T00:22:59;3.58;;;1.30;;
22652;SDS011;11493;43.344;26.226;2022-07-12T00:25:26;2.03;;;1.40;;
22652;SDS011;11493;43.344;26.226;2022-07-12T00:27:53;2.25;;;1.60;;
22652;SDS011;11493;43.344;26.226;2022-07-12T00:30:22;2.35;;;1.70;;
22652;SDS011;11493;43.344;26.226;2022-07-12T00:32:50;2.97;;;1.55;;
22652;SDS011;11493;43.344;26.226;2022-07-12T00:35:18;3.15;;;1.70;;
22652;SDS011;11493;43.344;26.226;2022-07-12T00:37:45;4.38;;;1.77;;
22652;SDS011;11493;43.344;26.226;2022-07-12T00:40:29;5.32;;;1.65;;
22652;SDS011;11493;43.344;26.226;2022-07-12T00:42:56;3.53;;;1.50;;
22652;SDS011;11493;43.344;26.226;2022-07-12T00:45:23;1.95;;;1.60;;
22652;SDS011;11493;43.344;26.226;2022-07-12T00:47:51;5.65;;;1.70;;
22652;SDS011;11493;43.344;26.226;2022-07-12T00:50:20;3.55;;;1.30;;
22652;SDS011;11493;43.344;26.226;2022-07-12T00:52:49;4.43;;;1.70;;
22652;SDS011;11493;43.344;26.226;2022-07-12T00:55:18;6.03;;;1.63;;
22652;SDS011;11493;43.344;26.226;2022-07-12T00:57:52;4.00;;;1.40;;
22652;SDS011;11493;43.344;26.226;2022-07-12T01:00:21;2.00;;;1.85;;
22652;SDS011;11493;43.344;26.226;2022-07-12T01:03:04;3.47;;;1.58;;
22652;SDS011;11493;43.344;26.226;2022-07-12T01:05:33;1.85;;;1.40;;
22652;SDS011;11493;43.344;26.226;2022-07-12T01:08:00;2.10;;;1.30;;
22652;SDS011;11493;43.344;26.226;2022-07-12T01:10:28;6.47;;;1.48;;
22652;SDS011;11493;43.344;26.226;2022-07-12T01:12:58;2.10;;;1.27;;
22652;SDS011;11493;43.344;26.226;2022-07-12T01:15:26;4.15;;;1.58;;
22652;SDS011;11493;43.344;26.226;2022-07-12T01:17:56;1.60;;;1.40;;
22652;SDS011;11493;43.344;26.226;2022-07-12T01:20:24;1.63;;;1.30;;
22652;SDS011;11493;43.344;26.226;2022-07-12T01:22:55;5.50;;;1.30;;
22652;SDS011;11493;43.344;26.226;2022-07-12T01:25:28;4.78;;;1.40;;
22652;SDS011;11493;43.344;26.226;2022-07-12T01:27:57;3.65;;;1.30;;
22652;SDS011;11493;43.344;26.226;2022-07-12T01:30:24;3.15;;;1.33;;
22652;SDS011;11493;43.344;26.226;2022-07-12T01:32:51;2.20;;;1.50;;
22652;SDS011;11493;43.344;26.226;2022-07-12T01:35:20;1.40;;;1.17;;
22652;SDS011;11493;43.344;26.226;2022-07-12T01:37:49;4.10;;;1.10;;
22652;SDS011;11493;43.344;26.226;2022-07-12T01:40:16;2.38;;;1.35;;
22652;SDS011;11493;43.344;26.226;2022-07-12T01:42:43;5.25;;;1.20;;
22652;SDS011;11493;43.344;26.226;2022-07-12T01:45:11;5.45;;;1.83;;
22652;SDS011;11493;43.344;26.226;2022-07-12T01:47:40;2.83;;;1.20;;
22652;SDS011;11493;43.344;26.226;2022-07-12T01:50:10;4.50;;;1.10;;
22652;SDS011;11493;43.344;26.226;2022-07-12T01:52:40;1.35;;;1.17;;
22652;SDS011;11493;43.344;26.226;2022-07-12T01:55:09;1.85;;;1.15;;
22652;SDS011;11493;43.344;26.226;2022-07-12T01:57:38;5.57;;;1.35;;
22652;SDS011;11493;43.344;26.226;2022-07-12T02:00:08;1.45;;;1.33;;
22652;SDS011;11493;43.344;26.226;2022-07-12T02:02:36;5.43;;;1.45;;
22652;SDS011;11493;43.344;26.226;2022-07-12T02:05:05;1.98;;;1.42;;
22652;SDS011;11493;43.344;26.226;2022-07-12T02:07:35;3.05;;;1.13;;
22652;SDS011;11493;43.344;26.226;2022-07-12T02:10:04;4.85;;;1.42;;
22652;SDS011;11493;43.344;26.226;2022-07-12T02:12:36;3.95;;;1.33;;
22652;SDS011;11493;43.344;26.226;2022-07-12T02:15:05;1.70;;;1.60;;
22652;SDS011;11493;43.344;26.226;2022-07-12T02:17:33;1.83;;;1.45;;
22652;SDS011;11493;43.344;26.226;2022-07-12T02:20:01;1.85;;;1.55;;
22652;SDS011;11493;43.344;26.226;2022-07-12T02:22:29;3.92;;;1.60;;
22652;SDS011;11493;43.344;26.226;2022-07-12T02:24:56;1.88;;;1.70;;
22652;SDS011;11493;43.344;26.226;2022-07-12T02:27:25;6.47;;;1.60;;
22652;SDS011;11493;43.344;26.226;2022-07-12T02:29:58;4.82;;;1.40;;
22652;SDS011;11493;43.344;26.226;2022-07-12T02:32:27;4.20;;;1.45;;
22652;SDS011;11493;43.344;26.226;2022-07-12T02:35:02;2.85;;;1.92;;
22652;SDS011;11493;43.344;26.226;2022-07-12T02:37:30;1.80;;;1.70;;
22652;SDS011;11493;43.344;26.226;2022-07-12T02:39:58;5.85;;;1.50;;
22652;SDS011;11493;43.344;26.226;2022-07-12T02:42:43;4.20;;;1.58;;
22652;SDS011;11493;43.344;26.226;2022-07-12T02:45:11;4.05;;;1.50;;
22652;SDS011;11493;43.344;26.226;2022-07-12T02:47:39;3.38;;;1.38;;
22652;SDS011;11493;43.344;26.226;2022-07-12T02:50:07;3.22;;;1.63;;
22652;SDS011;11493;43.344;26.226;2022-07-12T02:52:34;2.25;;;1.60;;
22652;SDS011;11493;43.344;26.226;2022-07-12T02:55:07;6.15;;;1.50;;
22652;SDS011;11493;43.344;26.226;2022-07-12T02:57:37;4.47;;;1.75;;
22652;SDS011;11493;43.344;26.226;2022-07-12T03:00:05;3.97;;;1.40;;
22652;SDS011;11493;43.344;26.226;2022-07-12T03:02:35;7.13;;;1.70;;
22652;SDS011;11493;43.344;26.226;2022-07-12T03:05:03;14.27;;;2.55;;
22652;SDS011;11493;43.344;26.226;2022-07-12T03:07:31;2.00;;;1.80;;
22652;SDS011;11493;43.344;26.226;2022-07-12T03:09:58;6.57;;;3.05;;
22652;SDS011;11493;43.344;26.226;2022-07-12T03:12:25;4.70;;;1.88;;
22652;SDS011;11493;43.344;26.226;2022-07-12T03:14:54;1.95;;;1.70;;
22652;SDS011;11493;43.344;26.226;2022-07-12T03:17:28;7.53;;;2.00;;
22652;SDS011;11493;43.344;26.226;2022-07-12T03:19:56;4.15;;;1.95;;
22652;SDS011;11493;43.344;26.226;2022-07-12T03:22:24;5.45;;;2.00;;
22652;SDS011;11493;43.344;26.226;2022-07-12T03:24:52;2.05;;;1.58;;
22652;SDS011;11493;43.344;26.226;2022-07-12T03:27:19;3.88;;;1.75;;
22652;SDS011;11493;43.344;26.226;2022-07-12T03:29:46;5.28;;;1.70;;
22652;SDS011;11493;43.344;26.226;2022-07-12T03:32:14;5.57;;;1.60;;
22652;SDS011;11493;43.344;26.226;2022-07-12T03:34:41;2.03;;;1.48;;
22652;SDS011;11493;43.344;26.226;2022-07-12T03:37:08;3.35;;;1.60;;
22652;SDS011;11493;43.344;26.226;2022-07-12T03:39:35;3.35;;;1.70;;
22652;SDS011;11493;43.344;26.226;2022-07-12T03:42:04;3.60;;;1.80;;
22652;SDS011;11493;43.344;26.226;2022-07-12T03:44:35;5.65;;;2.30;;
22652;SDS011;11493;43.344;26.226;2022-07-12T03:47:03;8.25;;;1.65;;
22652;SDS011;11493;43.344;26.226;2022-07-12T03:49:30;5.60;;;2.05;;
22652;SDS011;11493;43.344;26.226;2022-07-12T03:51:58;3.88;;;2.00;;
22652;SDS011;11493;43.344;26.226;2022-07-12T03:54:25;6.90;;;2.00;;
22652;SDS011;11493;43.344;26.226;2022-07-12T03:56:52;2.67;;;1.55;;
22652;SDS011;11493;43.344;26.226;2022-07-12T03:59:38;3.72;;;1.90;;
22652;SDS011;11493;43.344;26.226;2022-07-12T04:02:08;2.33;;;1.60;;
22652;SDS011;11493;43.344;26.226;2022-07-12T04:04:36;2.35;;;1.40;;
22652;SDS011;11493;43.344;26.226;2022-07-12T04:07:03;3.15;;;1.30;;
22652;SDS011;11493;43.344;26.226;2022-07-12T04:09:37;1.70;;;1.25;;
22652;SDS011;11493;43.344;26.226;2022-07-12T04:12:05;3.83;;;1.15;;
22652;SDS011;11493;43.344;26.226;2022-07-12T04:14:33;2.45;;;1.20;;
22652;SDS011;11493;43.344;26.226;2022-07-12T04:17:00;2.90;;;1.17;;
22652;SDS011;11493;43.344;26.226;2022-07-12T04:19:28;1.60;;;1.08;;
22652;SDS011;11493;43.344;26.226;2022-07-12T04:21:58;2.70;;;0.90;;
22652;SDS011;11493;43.344;26.226;2022-07-12T04:24:26;3.03;;;1.10;;
22652;SDS011;11493;43.344;26.226;2022-07-12T04:26:56;3.40;;;1.00;;
22652;SDS011;11493;43.344;26.226;2022-07-12T04:29:23;1.95;;;0.88;;
22652;SDS011;11493;43.344;26.226;2022-07-12T04:31:56;1.90;;;1.70;;
22652;SDS011;11493;43.344;26.226;2022-07-12T04:34:27;1.13;;;0.90;;
22652;SDS011;11493;43.344;26.226;2022-07-12T04:36:55;1.58;;;0.80;;
22652;SDS011;11493;43.344;26.226;2022-07-12T04:39:26;1.35;;;0.93;;
22652;SDS011;11493;43.344;26.226;2022-07-12T04:41:54;0.70;;;0.70;;
22652;SDS011;11493;43.344;26.226;2022-07-12T04:44:22;3.60;;;0.80;;
22652;SDS011;11493;43.344;26.226;2022-07-12T04:46:49;3.13;;;0.95;;
22652;SDS011;11493;43.344;26.226;2022-07-12T04:49:21;1.92;;;0.80;;
22652;SDS011;11493;43.344;26.226;2022-07-12T04:52:02;3.28;;;1.48;;
22652;SDS011;11493;43.344;26.226;2022-07-12T04:54:33;1.55;;;0.90;;
22652;SDS011;11493;43.344;26.226;2022-07-12T04:57:01;1.15;;;0.75;;
22652;SDS011;11493;43.344;26.226;2022-07-12T04:59:29;2.10;;;0.90;;
22652;SDS011;11493;43.344;26.226;2022-07-12T05:01:57;2.75;;;0.70;;
22652;SDS011;11493;43.344;26.226;2022-07-12T05:04:24;3.83;;;0.80;;
22652;SDS011;11493;43.344;26.226;2022-07-12T05:06:52;1.35;;;0.70;;
22652;SDS011;11493;43.344;26.226;2022-07-12T05:09:19;1.80;;;0.80;;
22652;SDS011;11493;43.344;26.226;2022-07-12T05:11:46;2.05;;;0.88;;
22652;SDS011;11493;43.344;26.226;2022-07-12T05:14:14;3.63;;;0.90;;
22652;SDS011;11493;43.344;26.226;2022-07-12T05:16:41;5.32;;;0.70;;
22652;SDS011;11493;43.344;26.226;2022-07-12T05:19:08;2.05;;;0.82;;
22652;SDS011;11493;43.344;26.226;2022-07-12T05:21:36;2.38;;;0.70;;
22652;SDS011;11493;43.344;26.226;2022-07-12T05:24:03;2.83;;;0.85;;
22652;SDS011;11493;43.344;26.226;2022-07-12T05:26:31;3.55;;;0.70;;
22652;SDS011;11493;43.344;26.226;2022-07-12T05:28:59;2.25;;;0.80;;
22652;SDS011;11493;43.344;26.226;2022-07-12T05:31:27;10.38;;;0.88;;
22652;SDS011;11493;43.344;26.226;2022-07-12T05:33:57;2.23;;;0.80;;
22652;SDS011;11493;43.344;26.226;2022-07-12T05:36:25;2.05;;;0.73;;
22652;SDS011;11493;43.344;26.226;2022-07-12T05:38:52;4.18;;;0.80;;
22652;SDS011;11493;43.344;26.226;2022-07-12T05:41:19;0.68;;;0.63;;
22652;SDS011;11493;43.344;26.226;2022-07-12T05:43:47;3.53;;;0.93;;
22652;SDS011;11493;43.344;26.226;2022-07-12T05:46:14;3.33;;;0.65;;
22652;SDS011;11493;43.344;26.226;2022-07-12T05:48:42;2.28;;;0.80;;
22652;SDS011;11493;43.344;26.226;2022-07-12T05:51:09;6.45;;;0.82;;
22652;SDS011;11493;43.344;26.226;2022-07-12T05:53:55;1.80;;;1.05;;
22652;SDS011;11493;43.344;26.226;2022-07-12T05:56:22;3.63;;;0.80;;
22652;SDS011;11493;43.344;26.226;2022-07-12T05:58:49;2.95;;;0.70;;
22652;SDS011;11493;43.344;26.226;2022-07-12T06:01:17;3.75;;;0.73;;
22652;SDS011;11493;43.344;26.226;2022-07-12T06:03:45;1.92;;;0.80;;
22652;SDS011;11493;43.344;26.226;2022-07-12T06:06:13;1.15;;;0.70;;
22652;SDS011;11493;43.344;26.226;2022-07-12T06:08:40;4.47;;;0.90;;
22652;SDS011;11493;43.344;26.226;2022-07-12T06:11:09;2.15;;;0.60;;
22652;SDS011;11493;43.344;26.226;2022-07-12T06:13:36;2.17;;;0.75;;
22652;SDS011;11493;43.344;26.226;2022-07-12T06:16:04;0.93;;;0.70;;
22652;SDS011;11493;43.344;26.226;2022-07-12T06:18:36;4.07;;;0.88;;
22652;SDS011;11493;43.344;26.226;2022-07-12T06:21:04;3.50;;;0.90;;
22652;SDS011;11493;43.344;26.226;2022-07-12T06:23:31;4.63;;;0.80;;
22652;SDS011;11493;43.344;26.226;2022-07-12T06:25:59;3.50;;;1.08;;
22652;SDS011;11493;43.344;26.226;2022-07-12T06:28:26;2.58;;;0.80;;
22652;SDS011;11493;43.344;26.226;2022-07-12T06:30:53;2.15;;;0.80;;
22652;SDS011;11493;43.344;26.226;2022-07-12T06:33:21;2.63;;;0.90;;
22652;SDS011;11493;43.344;26.226;2022-07-12T06:35:48;12.98;;;2.03;;
22652;SDS011;11493;43.344;26.226;2022-07-12T06:38:15;1.77;;;0.70;;
22652;SDS011;11493;43.344;26.226;2022-07-12T06:40:43;2.08;;;0.77;;
22652;SDS011;11493;43.344;26.226;2022-07-12T06:43:10;3.45;;;0.80;;
22652;SDS011;11493;43.344;26.226;2022-07-12T06:45:39;4.03;;;0.60;;
22652;SDS011;11493;43.344;26.226;2022-07-12T06:48:07;2.67;;;0.77;;
22652;SDS011;11493;43.344;26.226;2022-07-12T06:50:35;2.33;;;0.85;;
22652;SDS011;11493;43.344;26.226;2022-07-12T06:53:02;4.05;;;0.80;;
22652;SDS011;11493;43.344;26.226;2022-07-12T06:55:30;1.92;;;0.63;;
22652;SDS011;11493;43.344;26.226;2022-07-12T06:57:57;0.98;;;0.65;;
22652;SDS011;11493;43.344;26.226;2022-07-12T07:00:25;3.45;;;0.70;;
22652;SDS011;11493;43.344;26.226;2022-07-12T07:02:52;4.68;;;0.60;;
22652;SDS011;11493;43.344;26.226;2022-07-12T07:05:20;1.75;;;0.70;;
22652;SDS011;11493;43.344;26.226;2022-07-12T07:07:47;4.78;;;0.80;;
22652;SDS011;11493;43.344;26.226;2022-07-12T07:10:14;4.32;;;0.80;;
22652;SDS011;11493;43.344;26.226;2022-07-12T07:12:42;3.05;;;0.70;;
22652;SDS011;11493;43.344;26.226;2022-07-12T07:15:09;2.33;;;0.80;;
22652;SDS011;11493;43.344;26.226;2022-07-12T07:17:37;3.35;;;0.60;;
22652;SDS011;11493;43.344;26.226;2022-07-12T07:20:04;3.53;;;0.80;;
22652;SDS011;11493;43.344;26.226;2022-07-12T07:22:32;1.10;;;0.65;;
22652;SDS011;11493;43.344;26.226;2022-07-12T07:24:59;2.17;;;0.82;;
22652;SDS011;11493;43.344;26.226;2022-07-12T07:27:27;3.22;;;0.90;;
22652;SDS011;11493;43.344;26.226;2022-07-12T07:29:54;2.58;;;0.70;;
22652;SDS011;11493;43.344;26.226;2022-07-12T07:32:40;1.73;;;0.70;;
22652;SDS011;11493;43.344;26.226;2022-07-12T07:35:07;3.70;;;0.93;;
22652;SDS011;11493;43.344;26.226;2022-07-12T07:37:34;7.07;;;0.90;;
22652;SDS011;11493;43.344;26.226;2022-07-12T07:40:02;4.57;;;0.73;;
22652;SDS011;11493;43.344;26.226;2022-07-12T07:42:30;2.55;;;0.60;;
22652;SDS011;11493;43.344;26.226;2022-07-12T07:44:57;4.63;;;0.63;;
22652;SDS011;11493;43.344;26.226;2022-07-12T07:47:48;2.80;;;0.70;;
22652;SDS011;11493;43.344;26.226;2022-07-12T07:50:36;3.72;;;1.10;;
22652;SDS011;11493;43.344;26.226;2022-07-12T07:53:03;2.25;;;0.60;;
22652;SDS011;11493;43.344;26.226;2022-07-12T07:55:32;5.75;;;0.60;;
22652;SDS011;11493;43.344;26.226;2022-07-12T07:57:59;1.65;;;0.73;;
22652;SDS011;11493;43.344;26.226;2022-07-12T08:00:28;1.58;;;0.60;;
22652;SDS011;11493;43.344;26.226;2022-07-12T08:02:55;5.95;;;0.80;;
22652;SDS011;11493;43.344;26.226;2022-07-12T08:05:23;2.83;;;0.80;;
22652;SDS011;11493;43.344;26.226;2022-07-12T08:07:55;2.97;;;0.90;;
22652;SDS011;11493;43.344;26.226;2022-07-12T08:10:24;5.70;;;1.10;;
22652;SDS011;11493;43.344;26.226;2022-07-12T08:12:52;4.90;;;1.00;;
22652;SDS011;11493;43.344;26.226;2022-07-12T08:15:19;2.90;;;0.80;;
22652;SDS011;11493;43.344;26.226;2022-07-12T08:17:46;3.03;;;1.00;;
22652;SDS011;11493;43.344;26.226;2022-07-12T08:20:20;7.63;;;0.93;;
22652;SDS011;11493;43.344;26.226;2022-07-12T08:23:09;3.72;;;0.90;;
22652;SDS011;11493;43.344;26.226;2022-07-12T08:25:36;3.10;;;1.00;;
22652;SDS011;11493;43.344;26.226;2022-07-12T08:28:04;2.40;;;0.90;;
22652;SDS011;11493;43.344;26.226;2022-07-12T08:30:31;4.25;;;0.90;;
22652;SDS011;11493;43.344;26.226;2022-07-12T08:32:59;1.75;;;1.00;;
22652;SDS011;11493;43.344;26.226;2022-07-12T08:35:27;1.98;;;1.00;;
22652;SDS011;11493;43.344;26.226;2022-07-12T08:37:54;5.40;;;0.90;;
22652;SDS011;11493;43.344;26.226;2022-07-12T08:40:22;3.72;;;0.85;;
22652;SDS011;11493;43.344;26.226;2022-07-12T08:42:50;0.85;;;0.60;;
22652;SDS011;11493;43.344;26.226;2022-07-12T08:45:17;1.60;;;0.80;;
22652;SDS011;11493;43.344;26.226;2022-07-12T08:47:44;9.63;;;0.93;;
22652;SDS011;11493;43.344;26.226;2022-07-12T08:50:16;2.53;;;0.85;;
22652;SDS011;11493;43.344;26.226;2022-07-12T08:52:46;6.57;;;0.93;;
22652;SDS011;11493;43.344;26.226;2022-07-12T08:55:22;1.42;;;0.80;;
22652;SDS011;11493;43.344;26.226;2022-07-12T08:57:54;5.65;;;1.10;;
22652;SDS011;11493;43.344;26.226;2022-07-12T09:00:26;3.58;;;0.77;;
22652;SDS011;11493;43.344;26.226;2022-07-12T09:02:58;1.83;;;1.38;;
22652;SDS011;11493;43.344;26.226;2022-07-12T09:05:31;4.15;;;0.77;;
22652;SDS011;11493;43.344;26.226;2022-07-12T09:10:34;4.88;;;0.90;;
22652;SDS011;11493;43.344;26.226;2022-07-12T09:13:20;0.60;;;0.60;;
22652;SDS011;11493;43.344;26.226;2022-07-12T09:16:12;2.55;;;0.60;;
22652;SDS011;11493;43.344;26.226;2022-07-12T09:18:42;0.73;;;0.52;;
22652;SDS011;11493;43.344;26.226;2022-07-12T09:21:27;1.83;;;0.80;;
22652;SDS011;11493;43.344;26.226;2022-07-12T09:23:58;3.88;;;0.82;;
22652;SDS011;11493;43.344;26.226;2022-07-12T09:26:30;3.45;;;0.80;;
22652;SDS011;11493;43.344;26.226;2022-07-12T09:29:04;1.52;;;0.85;;
22652;SDS011;11493;43.344;26.226;2022-07-12T09:34:30;2.53;;;0.73;;
22652;SDS011;11493;43.344;26.226;2022-07-12T09:37:17;1.23;;;0.70;;
22652;SDS011;11493;43.344;26.226;2022-07-12T09:39:45;2.88;;;1.00;;
22652;SDS011;11493;43.344;26.226;2022-07-12T09:42:14;11.27;;;0.80;;
22652;SDS011;11493;43.344;26.226;2022-07-12T09:44:42;5.32;;;0.90;;
22652;SDS011;11493;43.344;26.226;2022-07-12T09:47:11;2.38;;;0.95;;
22652;SDS011;11493;43.344;26.226;2022-07-12T09:49:40;1.20;;;0.70;;
22652;SDS011;11493;43.344;26.226;2022-07-12T09:52:12;4.40;;;0.95;;
22652;SDS011;11493;43.344;26.226;2022-07-12T09:54:46;2.03;;;0.75;;
22652;SDS011;11493;43.344;26.226;2022-07-12T09:57:32;3.88;;;0.80;;
22652;SDS011;11493;43.344;26.226;2022-07-12T10:00:01;5.63;;;1.05;;
22652;SDS011;11493;43.344;26.226;2022-07-12T10:02:39;4.20;;;0.70;;
22652;SDS011;11493;43.344;26.226;2022-07-12T10:05:08;6.47;;;1.15;;
22652;SDS011;11493;43.344;26.226;2022-07-12T10:07:38;1.35;;;0.70;;
22652;SDS011;11493;43.344;26.226;2022-07-12T10:10:05;4.80;;;0.77;;
22652;SDS011;11493;43.344;26.226;2022-07-12T10:12:36;2.90;;;0.93;;
22652;SDS011;11493;43.344;26.226;2022-07-12T10:15:04;0.85;;;0.70;;
22652;SDS011;11493;43.344;26.226;2022-07-12T10:17:36;4.28;;;1.48;;
22652;SDS011;11493;43.344;26.226;2022-07-12T10:20:17;0.77;;;0.73;;
22652;SDS011;11493;43.344;26.226;2022-07-12T10:22:49;1.00;;;0.70;;
22652;SDS011;11493;43.344;26.226;2022-07-12T10:25:27;2.28;;;0.80;;
22652;SDS011;11493;43.344;26.226;2022-07-12T10:28:02;0.98;;;0.60;;
22652;SDS011;11493;43.344;26.226;2022-07-12T10:30:30;0.93;;;0.70;;
22652;SDS011;11493;43.344;26.226;2022-07-12T10:33:14;5.10;;;0.80;;
22652;SDS011;11493;43.344;26.226;2022-07-12T10:36:03;5.60;;;1.00;;
22652;SDS011;11493;43.344;26.226;2022-07-12T10:38:41;7.15;;;1.05;;
22652;SDS011;11493;43.344;26.226;2022-07-12T10:41:20;2.50;;;0.68;;
22652;SDS011;11493;43.344;26.226;2022-07-12T10:44:02;3.10;;;0.73;;
22652;SDS011;11493;43.344;26.226;2022-07-12T10:46:31;1.42;;;0.65;;
22652;SDS011;11493;43.344;26.226;2022-07-12T10:54:42;2.20;;;0.60;;
22652;SDS011;11493;43.344;26.226;2022-07-12T10:57:14;1.02;;;0.60;;
22652;SDS011;11493;43.344;26.226;2022-07-12T10:59:41;2.67;;;0.70;;
22652;SDS011;11493;43.344;26.226;2022-07-12T11:02:12;1.63;;;0.75;;
22652;SDS011;11493;43.344;26.226;2022-07-12T11:04:51;2.85;;;0.80;;
22652;SDS011;11493;43.344;26.226;2022-07-12T11:07:18;6.93;;;0.90;;
22652;SDS011;11493;43.344;26.226;2022-07-12T11:09:50;1.65;;;0.70;;
22652;SDS011;11493;43.344;26.226;2022-07-12T11:12:18;3.25;;;0.98;;
22652;SDS011;11493;43.344;26.226;2022-07-12T11:14:46;2.92;;;0.60;;
22652;SDS011;11493;43.344;26.226;2022-07-12T11:17:13;1.05;;;0.70;;
22652;SDS011;11493;43.344;26.226;2022-07-12T11:19:41;2.60;;;0.70;;
22652;SDS011;11493;43.344;26.226;2022-07-12T11:22:08;8.48;;;0.60;;
22652;SDS011;11493;43.344;26.226;2022-07-12T11:24:35;1.20;;;0.60;;
22652;SDS011;11493;43.344;26.226;2022-07-12T11:27:03;1.55;;;0.80;;
22652;SDS011;11493;43.344;26.226;2022-07-12T11:29:32;2.13;;;0.80;;
22652;SDS011;11493;43.344;26.226;2022-07-12T11:32:03;8.02;;;0.80;;
22652;SDS011;11493;43.344;26.226;2022-07-12T11:34:37;2.92;;;0.80;;
22652;SDS011;11493;43.344;26.226;2022-07-12T11:37:06;2.72;;;0.70;;
22652;SDS011;11493;43.344;26.226;2022-07-12T11:39:37;2.67;;;0.80;;
22652;SDS011;11493;43.344;26.226;2022-07-12T11:42:08;2.88;;;0.73;;
22652;SDS011;11493;43.344;26.226;2022-07-12T11:47:17;3.20;;;0.88;;
22652;SDS011;11493;43.344;26.226;2022-07-12T11:49:47;3.40;;;1.10;;
22652;SDS011;11493;43.344;26.226;2022-07-12T11:52:17;2.45;;;0.70;;
22652;SDS011;11493;43.344;26.226;2022-07-12T11:54:46;2.38;;;0.70;;
22652;SDS011;11493;43.344;26.226;2022-07-12T11:57:21;0.88;;;0.70;;
22652;SDS011;11493;43.344;26.226;2022-07-12T11:59:50;4.00;;;0.70;;
22652;SDS011;11493;43.344;26.226;2022-07-12T12:02:17;4.00;;;0.63;;
22652;SDS011;11493;43.344;26.226;2022-07-12T12:04:47;1.10;;;0.60;;
22652;SDS011;11493;43.344;26.226;2022-07-12T12:07:16;3.03;;;0.70;;
22652;SDS011;11493;43.344;26.226;2022-07-12T12:10:18;4.88;;;0.77;;
22652;SDS011;11493;43.344;26.226;2022-07-12T12:12:50;1.48;;;0.70;;
22652;SDS011;11493;43.344;26.226;2022-07-12T12:15:23;2.88;;;0.85;;
22652;SDS011;11493;43.344;26.226;2022-07-12T12:17:53;1.50;;;0.60;;
22652;SDS011;11493;43.344;26.226;2022-07-12T12:20:27;7.57;;;0.80;;
22652;SDS011;11493;43.344;26.226;2022-07-12T12:22:56;2.38;;;0.85;;
22652;SDS011;11493;43.344;26.226;2022-07-12T12:25:28;5.07;;;0.70;;
22652;SDS011;11493;43.344;26.226;2022-07-12T12:27:57;0.90;;;0.50;;
22652;SDS011;11493;43.344;26.226;2022-07-12T12:30:53;1.92;;;0.75;;
22652;SDS011;11493;43.344;26.226;2022-07-12T12:33:38;1.05;;;0.63;;
22652;SDS011;11493;43.344;26.226;2022-07-12T12:36:20;1.67;;;0.57;;
22652;SDS011;11493;43.344;26.226;2022-07-12T12:38:57;6.57;;;0.60;;
22652;SDS011;11493;43.344;26.226;2022-07-12T12:41:29;5.95;;;1.10;;
22652;SDS011;11493;43.344;26.226;2022-07-12T12:44:01;5.07;;;0.75;;
22652;SDS011;11493;43.344;26.226;2022-07-12T12:46:44;9.20;;;1.20;;
22652;SDS011;11493;43.344;26.226;2022-07-12T12:49:20;1.02;;;0.70;;
22652;SDS011;11493;43.344;26.226;2022-07-12T12:52:27;1.33;;;0.50;;
22652;SDS011;11493;43.344;26.226;2022-07-12T12:54:56;2.70;;;0.63;;
22652;SDS011;11493;43.344;26.226;2022-07-12T12:57:24;2.40;;;0.90;;
22652;SDS011;11493;43.344;26.226;2022-07-12T12:59:52;1.73;;;0.70;;
22652;SDS011;11493;43.344;26.226;2022-07-12T13:02:20;0.80;;;0.50;;
22652;SDS011;11493;43.344;26.226;2022-07-12T13:04:51;0.80;;;0.70;;
22652;SDS011;11493;43.344;26.226;2022-07-12T13:07:18;2.28;;;0.73;;
22652;SDS011;11493;43.344;26.226;2022-07-12T13:09:49;12.05;;;0.75;;
22652;SDS011;11493;43.344;26.226;2022-07-12T13:12:16;2.95;;;0.40;;
22652;SDS011;11493;43.344;26.226;2022-07-12T13:14:44;5.28;;;0.68;;
22652;SDS011;11493;43.344;26.226;2022-07-12T13:17:11;1.42;;;0.40;;
22652;SDS011;11493;43.344;26.226;2022-07-12T13:19:38;9.77;;;0.70;;
22652;SDS011;11493;43.344;26.226;2022-07-12T13:22:05;4.13;;;0.80;;
22652;SDS011;11493;43.344;26.226;2022-07-12T13:24:33;10.38;;;0.68;;
22652;SDS011;11493;43.344;26.226;2022-07-12T13:27:01;1.35;;;0.50;;
22652;SDS011;11493;43.344;26.226;2022-07-12T13:29:28;6.65;;;1.33;;
22652;SDS011;11493;43.344;26.226;2022-07-12T13:31:56;6.93;;;0.40;;
22652;SDS011;11493;43.344;26.226;2022-07-12T13:34:23;3.95;;;0.50;;
22652;SDS011;11493;43.344;26.226;2022-07-12T13:36:51;5.35;;;0.65;;
22652;SDS011;11493;43.344;26.226;2022-07-12T13:39:18;1.27;;;0.57;;
22652;SDS011;11493;43.344;26.226;2022-07-12T13:42:05;1.25;;;0.50;;
22652;SDS011;11493;43.344;26.226;2022-07-12T13:44:32;2.70;;;0.68;;
22652;SDS011;11493;43.344;26.226;2022-07-12T13:46:59;1.00;;;0.60;;
22652;SDS011;11493;43.344;26.226;2022-07-12T13:49:27;1.95;;;0.50;;
22652;SDS011;11493;43.344;26.226;2022-07-12T13:51:54;1.88;;;0.50;;
22652;SDS011;11493;43.344;26.226;2022-07-12T13:54:22;0.95;;;0.47;;
22652;SDS011;11493;43.344;26.226;2022-07-12T13:56:49;1.17;;;0.50;;
22652;SDS011;11493;43.344;26.226;2022-07-12T13:59:16;1.98;;;0.50;;
22652;SDS011;11493;43.344;26.226;2022-07-12T14:01:44;3.22;;;0.60;;
22652;SDS011;11493;43.344;26.226;2022-07-12T14:04:12;2.95;;;0.60;;
22652;SDS011;11493;43.344;26.226;2022-07-12T14:06:39;3.92;;;0.60;;
22652;SDS011;11493;43.344;26.226;2022-07-12T14:09:07;1.00;;;0.50;;
22652;SDS011;11493;43.344;26.226;2022-07-12T14:11:34;1.52;;;0.50;;
22652;SDS011;11493;43.344;26.226;2022-07-12T14:14:01;4.10;;;0.50;;
22652;SDS011;11493;43.344;26.226;2022-07-12T14:16:28;2.17;;;0.43;;
22652;SDS011;11493;43.344;26.226;2022-07-12T14:18:57;3.88;;;0.43;;
22652;SDS011;11493;43.344;26.226;2022-07-12T14:21:24;6.07;;;0.80;;
22652;SDS011;11493;43.344;26.226;2022-07-12T14:23:54;2.35;;;0.30;;
22652;SDS011;11493;43.344;26.226;2022-07-12T14:26:21;0.55;;;0.40;;
22652;SDS011;11493;43.344;26.226;2022-07-12T14:28:48;1.10;;;0.43;;
22652;SDS011;11493;43.344;26.226;2022-07-12T14:31:15;1.75;;;0.45;;
22652;SDS011;11493;43.344;26.226;2022-07-12T14:33:43;2.75;;;0.47;;
22652;SDS011;11493;43.344;26.226;2022-07-12T14:36:11;2.97;;;0.40;;
22652;SDS011;11493;43.344;26.226;2022-07-12T14:38:38;4.32;;;0.52;;
22652;SDS011;11493;43.344;26.226;2022-07-12T14:41:05;0.98;;;0.50;;
22652;SDS011;11493;43.344;26.226;2022-07-12T14:43:33;2.97;;;0.50;;
22652;SDS011;11493;43.344;26.226;2022-07-12T14:46:00;3.28;;;0.30;;
22652;SDS011;11493;43.344;26.226;2022-07-12T14:48:28;1.58;;;0.35;;
22652;SDS011;11493;43.344;26.226;2022-07-12T14:50:55;1.08;;;0.50;;
22652;SDS011;11493;43.344;26.226;2022-07-12T14:53:23;3.67;;;0.50;;
22652;SDS011;11493;43.344;26.226;2022-07-12T14:55:50;0.95;;;0.40;;
22652;SDS011;11493;43.344;26.226;2022-07-12T14:58:18;11.38;;;0.70;;
22652;SDS011;11493;43.344;26.226;2022-07-12T15:00:45;3.60;;;0.50;;
22652;SDS011;11493;43.344;26.226;2022-07-12T15:03:13;1.88;;;0.60;;
22652;SDS011;11493;43.344;26.226;2022-07-12T15:05:40;3.97;;;0.77;;
22652;SDS011;11493;43.344;26.226;2022-07-12T15:08:07;4.03;;;0.93;;